Time;durP1;ratioP1;P1;durP2;ratioP2;P2;SDS_P1;SDS_P2;PMS_P1;PMS_P2;Temp;Humidity;BMP_temperature;BMP_pressure;BME280_temperature;BME280_humidity;BME280_pressure;Samples;Min_cycle;Max_cycle;Signal;HPM_P1;HPM_P2
2022/12/24 00:00:26;;;;;;;38.05;7.30;;;;;;;9.38;98.75;100528.25;5019364;28;20511;-57
2022/12/24 00:02:52;;;;;;;38.20;7.35;;;;;;;9.39;99.04;100534.38;5025175;28;20102;-57
2022/12/24 00:05:17;;;;;;;37.08;7.70;;;;;;;9.39;98.86;100534.38;5023024;28;20109;-57
2022/12/24 00:07:42;;;;;;;33.22;7.60;;;;;;;9.39;98.76;100540.47;5024639;28;20120;-57
2022/12/24 00:10:09;;;;;;;31.75;7.18;;;;;;;9.26;99.49;100540.97;5021999;28;20017;-57
2022/12/24 00:12:35;;;;;;;42.28;7.95;;;;;;;9.37;98.26;100549.59;5024166;28;20037;-57
2022/12/24 00:15:00;;;;;;;38.00;8.05;;;;;;;9.29;100.00;100545.91;5024151;28;20041;-58
2022/12/24 00:17:25;;;;;;;37.75;8.30;;;;;;;9.27;99.92;100547.91;5027647;28;20037;-59
2022/12/24 00:19:51;;;;;;;36.38;7.45;;;;;;;9.28;99.98;100546.91;5028883;28;20068;-57
2022/12/24 00:22:16;;;;;;;37.03;7.95;;;;;;;9.32;99.70;100551.91;5023287;28;20037;-57
2022/12/24 00:24:41;;;;;;;39.08;8.18;;;;;;;9.42;98.40;100550.75;5023025;28;20034;-57
2022/12/24 00:27:06;;;;;;;41.95;7.70;;;;;;;9.30;99.81;100552.03;5026951;28;20476;-56
2022/12/24 00:29:32;;;;;;;37.75;8.30;;;;;;;9.24;100.00;100553.50;5014320;28;20050;-57
2022/12/24 00:31:57;;;;;;;39.80;8.38;;;;;;;9.22;100.00;100549.38;5021642;28;20414;-57
2022/12/24 00:34:23;;;;;;;38.20;7.95;;;;;;;9.29;99.75;100553.84;5016908;28;20033;-57
2022/12/24 00:36:49;;;;;;;33.53;7.65;;;;;;;9.24;100.00;100558.78;5029267;28;20473;-56
2022/12/24 00:39:14;;;;;;;38.22;7.75;;;;;;;9.19;100.00;100554.97;5027527;28;20117;-59
2022/12/24 00:41:40;;;;;;;39.65;7.57;;;;;;;9.27;100.00;100558.47;5029734;28;20034;-57
2022/12/24 00:44:08;;;;;;;32.58;6.85;;;;;;;9.35;99.38;100580.66;5024458;28;20091;-59
2022/12/24 00:46:34;;;;;;;35.08;7.93;;;;;;;9.29;100.00;100579.50;5022657;28;20053;-57
2022/12/24 00:49:00;;;;;;;37.92;7.55;;;;;;;9.33;100.00;100590.59;5022333;28;20071;-58
2022/12/24 00:51:25;;;;;;;35.58;8.15;;;;;;;9.22;100.00;100597.81;5025900;28;20080;-58
2022/12/24 00:53:51;;;;;;;36.10;7.22;;;;;;;9.22;100.00;100597.81;5023617;28;20049;-57
2022/12/24 00:56:17;;;;;;;35.15;7.45;;;;;;;9.26;99.75;100604.47;5022674;28;20030;-57
2022/12/24 00:58:42;;;;;;;29.90;6.85;;;;;;;9.26;100.00;100607.09;5024487;28;20032;-57
2022/12/24 01:01:07;;;;;;;34.88;6.97;;;;;;;9.24;99.88;100611.72;5022092;28;20037;-56
2022/12/24 01:03:35;;;;;;;37.38;7.43;;;;;;;9.27;99.73;100616.69;5020964;28;20037;-57
2022/12/24 01:06:02;;;;;;;36.42;7.90;;;;;;;9.19;100.00;100618.47;5027172;28;20044;-58
2022/12/24 01:08:28;;;;;;;37.80;7.95;;;;;;;9.21;99.60;100616.50;5023764;28;20077;-58
2022/12/24 01:10:53;;;;;;;32.10;7.53;;;;;;;9.25;99.33;100620.47;5022993;28;20112;-57
2022/12/24 01:13:18;;;;;;;42.83;8.77;;;;;;;9.19;100.00;100619.31;5020720;28;20025;-57
2022/12/24 01:15:44;;;;;;;33.85;7.40;;;;;;;9.16;100.00;100619.63;5023452;28;20404;-57
2022/12/24 01:18:09;;;;;;;34.45;8.02;;;;;;;9.10;100.00;100614.94;5022080;28;20124;-57
2022/12/24 01:20:34;;;;;;;39.22;7.68;;;;;;;9.21;99.39;100627.91;5020369;28;20057;-56
2022/12/24 01:23:00;;;;;;;34.72;7.57;;;;;;;9.11;100.00;100630.69;5021088;28;20116;-58
2022/12/24 01:25:25;;;;;;;33.35;7.75;;;;;;;9.04;100.00;100626.16;5022594;28;20032;-58
2022/12/24 01:27:50;;;;;;;40.92;9.13;;;;;;;9.16;98.74;100638.13;5018771;28;20451;-57
2022/12/24 01:30:16;;;;;;;36.30;8.40;;;;;;;9.03;100.00;100643.84;5023423;28;20116;-58
2022/12/24 01:32:41;;;;;;;34.67;8.40;;;;;;;8.94;100.00;100632.38;5019312;28;20053;-60
2022/12/24 01:35:08;;;;;;;34.47;7.13;;;;;;;8.95;100.00;100638.50;5024802;28;20107;-57
2022/12/24 01:37:33;;;;;;;35.33;7.95;;;;;;;8.95;100.00;100643.78;5019516;28;20092;-56
2022/12/24 01:45:52;;;;;;;37.25;8.15;;;;;;;8.82;100.00;100654.78;5021650;28;20111;-57
2022/12/24 01:48:35;;;;;;;38.17;8.90;;;;;;;8.79;100.00;100647.97;5020770;28;20192;-57
2022/12/24 01:51:22;;;;;;;36.65;8.43;;;;;;;8.79;100.00;100661.19;5019998;28;20091;-57
2022/12/24 01:53:51;;;;;;;35.30;8.38;;;;;;;8.75;100.00;100660.69;5020915;28;20033;-57
2022/12/24 01:56:19;;;;;;;37.97;8.02;;;;;;;8.75;100.00;100663.31;5020878;28;20061;-58
2022/12/24 01:58:49;;;;;;;36.00;7.72;;;;;;;8.72;100.00;100653.06;5020359;28;20021;-57
2022/12/24 02:01:16;;;;;;;39.63;8.25;;;;;;;8.72;100.00;100660.16;5020801;28;20033;-57
2022/12/24 02:03:41;;;;;;;37.40;7.45;;;;;;;8.73;100.00;100664.47;5019965;28;20426;-57
2022/12/24 02:06:08;;;;;;;42.00;8.43;;;;;;;8.74;100.00;100664.31;5018538;28;20040;-57
2022/12/24 02:08:39;;;;;;;35.92;8.63;;;;;;;8.80;100.00;100662.03;5020678;28;20029;-58
2022/12/24 02:11:13;;;;;;;44.72;8.30;;;;;;;8.78;100.00;100669.31;5020251;28;20029;-58
2022/12/24 02:13:39;;;;;;;38.40;8.15;;;;;;;8.78;100.00;100677.25;5022813;28;20025;-57
2022/12/24 02:16:10;;;;;;;39.72;7.88;;;;;;;8.88;100.00;100677.94;5020965;28;20117;-58
2022/12/24 02:18:55;;;;;;;38.20;7.57;;;;;;;8.83;100.00;100683.72;5027959;28;20500;-57
2022/12/24 02:21:46;;;;;;;38.40;8.50;;;;;;;8.88;100.00;100686.72;5022589;28;20041;-56
2022/12/24 02:24:39;;;;;;;42.72;8.05;;;;;;;8.87;100.00;100684.22;5025668;28;20129;-59
2022/12/24 02:27:13;;;;;;;39.20;9.07;;;;;;;8.83;100.00;100682.91;5018019;28;20035;-58
2022/12/24 02:30:11;;;;;;;38.35;7.72;;;;;;;8.90;100.00;100694.50;5023709;28;20820;-57
2022/12/24 02:32:46;;;;;;;42.92;8.35;;;;;;;8.85;100.00;100696.78;5012445;28;20065;-57
2022/12/24 02:35:22;;;;;;;39.92;7.38;;;;;;;8.90;100.00;100697.16;5025025;28;20041;-57
2022/12/24 02:38:00;;;;;;;44.85;7.80;;;;;;;8.85;100.00;100691.50;5020321;28;20022;-56
2022/12/24 02:40:37;;;;;;;45.75;7.15;;;;;;;8.89;100.00;100698.16;5017880;28;20032;-57
2022/12/24 02:43:09;;;;;;;44.08;8.18;;;;;;;8.84;100.00;100689.84;5017999;28;20050;-59
2022/12/24 02:45:35;;;;;;;39.58;7.85;;;;;;;8.93;100.00;100703.97;5012623;28;20489;-57
2022/12/24 02:48:00;;;;;;;37.63;7.13;;;;;;;8.88;100.00;100697.31;5019155;28;20030;-56
2022/12/24 02:50:26;;;;;;;35.95;6.88;;;;;;;9.01;100.00;100698.72;5019758;28;20112;-57
2022/12/24 02:52:52;;;;;;;36.58;7.50;;;;;;;8.95;100.00;100704.63;5020033;28;20030;-58
2022/12/24 02:55:38;;;;;;;40.97;7.07;;;;;;;8.93;100.00;100710.06;5021357;28;20047;-57
2022/12/24 02:58:28;;;;;;;37.13;7.30;;;;;;;9.00;100.00;100700.56;5019376;28;20083;-57
2022/12/24 03:00:56;;;;;;;42.40;6.90;;;;;;;8.98;100.00;100704.34;5018278;28;20061;-57
2022/12/24 03:03:40;;;;;;;37.75;6.72;;;;;;;8.99;100.00;100700.69;5019468;28;20043;-57
2022/12/24 03:06:33;;;;;;;41.58;7.10;;;;;;;8.93;100.00;100710.06;5022255;28;20455;-58
2022/12/24 03:09:11;;;;;;;36.60;7.25;;;;;;;8.91;100.00;100696.16;5021514;28;20544;-57
2022/12/24 03:11:40;;;;;;;37.08;7.30;;;;;;;8.91;100.00;100717.31;5019377;28;20045;-59
2022/12/24 03:14:06;;;;;;;38.92;7.13;;;;;;;8.93;100.00;100717.19;5021880;28;20517;-59
2022/12/24 03:16:31;;;;;;;43.70;7.75;;;;;;;8.92;100.00;100721.63;5023828;28;20156;-58
2022/12/24 03:18:58;;;;;;;33.85;6.70;;;;;;;8.98;100.00;100712.28;5019538;28;20022;-58
2022/12/24 03:21:34;;;;;;;37.33;6.90;;;;;;;9.05;100.00;100718.59;5020644;28;20065;-57
2022/12/24 03:24:00;;;;;;;35.42;7.15;;;;;;;8.99;100.00;100713.91;5018942;28;20036;-57
2022/12/24 03:26:27;;;;;;;40.25;8.00;;;;;;;9.04;100.00;100721.38;5020578;28;21242;-58
2022/12/24 03:28:53;;;;;;;28.67;6.80;;;;;;;9.05;100.00;100717.75;5017006;28;20041;-58
2022/12/24 03:31:19;;;;;;;39.03;7.55;;;;;;;9.05;100.00;100723.03;5021362;28;20032;-57
2022/12/24 03:33:45;;;;;;;37.72;8.05;;;;;;;9.04;100.00;100719.59;5022031;28;20025;-57
2022/12/24 03:36:11;;;;;;;39.15;7.97;;;;;;;9.04;100.00;100724.88;5021537;28;20041;-58
2022/12/24 03:38:36;;;;;;;33.45;7.45;;;;;;;9.08;100.00;100726.22;5022151;28;20116;-59
2022/12/24 03:41:02;;;;;;;31.27;7.13;;;;;;;9.12;100.00;100734.66;5018258;28;20030;-57
2022/12/24 03:43:27;;;;;;;36.97;7.50;;;;;;;9.14;100.00;100738.81;5024376;28;20124;-60
2022/12/24 03:45:52;;;;;;;33.80;6.75;;;;;;;9.23;100.00;100731.75;5024329;28;20112;-58
2022/12/24 03:48:18;;;;;;;32.75;7.10;;;;;;;9.14;100.00;100738.81;5024700;28;20097;-58
2022/12/24 03:50:43;;;;;;;33.35;7.40;;;;;;;9.12;100.00;100739.94;5022275;28;20384;-58
2022/12/24 03:53:08;;;;;;;34.38;7.05;;;;;;;9.13;100.00;100736.34;5024658;28;20091;-60
2022/12/24 03:55:34;;;;;;;29.40;7.07;;;;;;;9.12;100.00;100742.59;5024409;28;20100;-57
2022/12/24 03:57:59;;;;;;;31.98;7.32;;;;;;;9.15;100.00;100734.38;5027353;28;20036;-57
2022/12/24 04:00:24;;;;;;;32.88;7.40;;;;;;;9.17;100.00;100748.25;5024868;28;20029;-59
2022/12/24 04:02:50;;;;;;;29.83;7.22;;;;;;;9.19;100.00;100751.59;5026356;28;20095;-57
2022/12/24 04:05:19;;;;;;;30.05;6.70;;;;;;;9.19;100.00;100741.03;5025437;28;20350;-57
2022/12/24 04:07:45;;;;;;;32.47;7.05;;;;;;;9.18;100.00;100749.91;5023488;28;20039;-59
2022/12/24 04:10:11;;;;;;;30.38;7.25;;;;;;;9.16;100.00;100746.59;5025981;28;20034;-57
2022/12/24 04:12:37;;;;;;;34.22;7.50;;;;;;;9.13;100.00;100742.44;5022661;28;20037;-57
2022/12/24 04:15:03;;;;;;;31.05;7.07;;;;;;;9.16;100.00;100751.91;5030618;28;20040;-56
2022/12/24 04:17:28;;;;;;;31.25;6.80;;;;;;;9.14;100.00;100748.59;5023088;28;20496;-57
2022/12/24 04:19:53;;;;;;;34.58;7.38;;;;;;;9.28;100.00;100749.84;5015510;28;20072;-57
2022/12/24 04:22:18;;;;;;;30.33;7.43;;;;;;;9.18;100.00;100749.09;5022541;28;20460;-57
2022/12/24 04:24:44;;;;;;;31.45;6.70;;;;;;;9.18;100.00;100759.69;5014192;28;20037;-57
2022/12/24 04:27:09;;;;;;;29.88;6.80;;;;;;;9.22;100.00;100772.44;5020061;28;20406;-57
2022/12/24 04:29:34;;;;;;;31.63;6.95;;;;;;;9.21;100.00;100765.50;5020413;28;20037;-57
2022/12/24 04:32:00;;;;;;;30.80;6.50;;;;;;;9.19;100.00;100767.47;5020423;28;20265;-57
2022/12/24 04:34:25;;;;;;;29.83;7.43;;;;;;;9.19;100.00;100766.63;5031077;28;20489;-58
2022/12/24 04:36:51;;;;;;;29.48;7.57;;;;;;;9.17;100.00;100764.13;5021660;28;20083;-58
2022/12/24 04:39:16;;;;;;;35.45;7.70;;;;;;;9.16;100.00;100767.78;5024142;28;20034;-59
2022/12/24 04:41:41;;;;;;;29.45;7.00;;;;;;;9.18;100.00;100765.78;5029342;28;20025;-58
2022/12/24 04:44:08;;;;;;;35.28;7.22;;;;;;;9.16;100.00;100767.78;5022653;28;20059;-57
2022/12/24 04:46:34;;;;;;;36.15;8.43;;;;;;;9.17;100.00;100774.72;5024956;28;20045;-57
2022/12/24 04:49:00;;;;;;;32.40;7.50;;;;;;;9.14;100.00;100764.47;5025721;28;20091;-58
2022/12/24 04:51:26;;;;;;;38.20;7.88;;;;;;;9.08;100.00;100767.72;5022469;28;20045;-57
2022/12/24 04:53:51;;;;;;;33.13;7.05;;;;;;;9.14;100.00;100762.63;5022510;28;20041;-56
2022/12/24 04:56:22;;;;;;;33.95;7.50;;;;;;;9.06;100.00;100765.22;5024551;28;20041;-56
2022/12/24 04:58:49;;;;;;;35.53;6.57;;;;;;;9.11;100.00;100780.63;5024738;28;20040;-57
2022/12/24 05:01:18;;;;;;;34.65;6.90;;;;;;;9.10;100.00;100779.81;5023882;28;20044;-58
2022/12/24 05:03:43;;;;;;;26.75;5.72;;;;;;;9.11;100.00;100781.47;5019280;28;20026;-57
2022/12/24 05:06:12;;;;;;;36.88;6.43;;;;;;;9.11;100.00;100785.91;5025700;28;20021;-59
2022/12/24 05:08:37;;;;;;;32.58;6.20;;;;;;;9.07;100.00;100789.88;5025338;28;20045;-57
2022/12/24 05:11:05;;;;;;;32.53;5.85;;;;;;;9.05;100.00;100786.53;5020816;28;20040;-57
2022/12/24 05:13:31;;;;;;;36.03;6.65;;;;;;;9.01;100.00;100789.50;5024796;28;20041;-57
2022/12/24 05:15:56;;;;;;;36.78;6.28;;;;;;;9.02;100.00;100799.09;5025610;28;20040;-58
2022/12/24 05:18:22;;;;;;;36.13;6.82;;;;;;;9.00;100.00;100798.41;5020447;28;20488;-57
2022/12/24 05:20:48;;;;;;;33.58;6.53;;;;;;;9.01;100.00;100792.13;5023558;28;20045;-57
2022/12/24 05:26:21;;;;;;;36.42;6.97;;;;;;;9.05;100.00;100778.59;5025505;28;20045;-56
2022/12/24 05:28:50;;;;;;;37.13;6.88;;;;;;;9.00;100.00;100782.53;5024737;28;20116;-57
2022/12/24 05:31:16;;;;;;;31.92;6.15;;;;;;;9.08;100.00;100792.34;5022548;28;20040;-60
2022/12/24 05:33:42;;;;;;;35.03;6.20;;;;;;;9.02;100.00;100783.22;5021303;28;20400;-59
2022/12/24 05:36:08;;;;;;;34.55;6.68;;;;;;;8.97;100.00;100774.91;5023641;28;20025;-57
2022/12/24 05:38:33;;;;;;;32.22;7.15;;;;;;;8.94;100.00;100779.66;5025090;28;20392;-57
2022/12/24 05:40:59;;;;;;;31.23;6.88;;;;;;;8.94;100.00;100796.34;5020775;28;20064;-58
2022/12/24 05:43:24;;;;;;;34.05;6.93;;;;;;;8.94;100.00;100800.81;5019966;28;20053;-58
2022/12/24 05:45:50;;;;;;;44.40;7.22;;;;;;;8.96;100.00;100796.19;5021161;28;20025;-57
2022/12/24 05:48:15;;;;;;;33.65;7.13;;;;;;;8.95;100.00;100808.63;5020759;28;20076;-58
2022/12/24 05:50:40;;;;;;;35.55;7.10;;;;;;;8.91;100.00;100812.53;5023084;28;20025;-57
2022/12/24 05:53:06;;;;;;;34.47;7.10;;;;;;;8.89;100.00;100822.44;5020918;28;20041;-56
2022/12/24 05:55:33;;;;;;;32.85;7.03;;;;;;;8.91;100.00;100827.56;5023388;28;20048;-58
2022/12/24 05:57:58;;;;;;;40.55;7.78;;;;;;;8.91;100.00;100819.63;5024113;28;20026;-56
2022/12/24 06:00:23;;;;;;;31.90;7.38;;;;;;;8.87;100.00;100827.88;5021038;28;20791;-57
2022/12/24 06:02:49;;;;;;;39.20;7.20;;;;;;;8.90;100.00;100825.91;5023205;28;20025;-58
2022/12/24 06:05:14;;;;;;;33.58;7.18;;;;;;;8.89;100.00;100835.66;5023642;28;20074;-56
2022/12/24 06:07:39;;;;;;;29.23;6.78;;;;;;;8.97;100.00;100835.72;5024403;28;20468;-57
2022/12/24 06:10:06;;;;;;;30.25;6.88;;;;;;;9.04;100.00;100829.84;5020078;28;20091;-57
2022/12/24 06:12:32;;;;;;;33.70;7.40;;;;;;;8.91;100.00;100825.75;5023035;28;20052;-60
2022/12/24 06:14:58;;;;;;;33.85;7.63;;;;;;;8.88;100.00;100823.41;5021233;28;20200;-56
2022/12/24 06:17:23;;;;;;;34.10;6.88;;;;;;;8.90;100.00;100816.16;5020607;28;20109;-57
2022/12/24 06:19:48;;;;;;;35.58;7.43;;;;;;;8.91;100.00;100828.41;5023991;28;20586;-56
2022/12/24 06:22:14;;;;;;;30.38;7.78;;;;;;;8.95;100.00;100835.06;5021479;28;20033;-56
2022/12/24 06:24:39;;;;;;;32.80;8.05;;;;;;;8.96;100.00;100841.16;5019699;28;20044;-57
2022/12/24 06:27:04;;;;;;;35.83;7.47;;;;;;;8.88;100.00;100833.97;5023640;28;20026;-58
2022/12/24 06:29:30;;;;;;;30.40;7.55;;;;;;;8.85;100.00;100835.13;5021184;28;20034;-57
2022/12/24 06:31:55;;;;;;;33.08;7.47;;;;;;;8.84;100.00;100837.94;5022759;28;20086;-57
2022/12/24 06:34:20;;;;;;;34.70;7.47;;;;;;;8.85;100.00;100839.59;5021744;28;20477;-57
2022/12/24 06:36:45;;;;;;;32.75;7.72;;;;;;;8.81;100.00;100851.44;5022966;28;20040;-56
2022/12/24 06:39:11;;;;;;;35.08;7.70;;;;;;;8.85;100.00;100855.44;5019319;28;20030;-57
2022/12/24 06:41:36;;;;;;;35.92;7.57;;;;;;;8.85;100.00;100850.16;5022795;28;20029;-56
2022/12/24 06:44:01;;;;;;;32.30;7.38;;;;;;;8.75;100.00;100861.63;5023802;28;20096;-57
2022/12/24 06:46:26;;;;;;;30.45;7.28;;;;;;;8.82;100.00;100853.09;5019691;28;20050;-57
2022/12/24 06:48:53;;;;;;;35.58;7.63;;;;;;;8.72;100.00;100856.66;5021794;28;20992;-56
2022/12/24 06:51:19;;;;;;;35.42;8.52;;;;;;;8.72;100.00;100858.44;5017306;28;20033;-57
2022/12/24 06:53:45;;;;;;;34.05;7.63;;;;;;;8.75;100.00;100861.63;5021422;28;20047;-57
2022/12/24 06:56:12;;;;;;;37.25;8.40;;;;;;;8.68;100.00;100865.84;5020217;28;20030;-56
2022/12/24 06:58:39;;;;;;;32.65;8.15;;;;;;;8.76;100.00;100870.41;5018148;28;20048;-57
2022/12/24 07:01:06;;;;;;;35.67;7.95;;;;;;;8.79;100.00;100874.56;5017937;28;20030;-56
2022/12/24 07:03:32;;;;;;;39.78;8.18;;;;;;;8.74;100.00;100864.44;5021708;28;20105;-58
2022/12/24 07:05:58;;;;;;;38.40;7.85;;;;;;;8.82;100.00;100874.25;5020356;28;20045;-57
2022/12/24 07:08:23;;;;;;;35.92;8.48;;;;;;;8.73;100.00;100874.16;5018858;28;20033;-57
2022/12/24 07:10:49;;;;;;;34.47;8.25;;;;;;;8.72;100.00;100874.31;5017371;28;20033;-60
2022/12/24 07:13:16;;;;;;;41.83;8.52;;;;;;;8.69;100.00;100878.06;5020260;28;20163;-59
2022/12/24 07:15:41;;;;;;;36.10;7.35;;;;;;;8.79;100.00;100883.31;5014625;28;20113;-57
2022/12/24 07:18:07;;;;;;;36.10;8.23;;;;;;;8.67;100.00;100882.69;5020276;28;20022;-58
2022/12/24 07:20:32;;;;;;;35.38;7.43;;;;;;;8.69;100.00;100883.38;5024690;28;20048;-61
2022/12/24 07:22:57;;;;;;;36.20;8.18;;;;;;;8.69;100.00;100883.38;5024155;28;20112;-58
2022/12/24 07:25:22;;;;;;;42.13;8.32;;;;;;;8.64;100.00;100885.66;5021998;28;20045;-59
2022/12/24 07:27:48;;;;;;;39.58;7.65;;;;;;;8.65;100.00;100897.03;5022010;28;20037;-57
2022/12/24 07:30:13;;;;;;;41.90;8.20;;;;;;;8.63;100.00;100893.72;5021283;28;20083;-57
2022/12/24 07:32:39;;;;;;;34.03;7.00;;;;;;;8.64;100.00;100901.50;5021970;28;20679;-59
2022/12/24 07:35:04;;;;;;;38.38;7.63;;;;;;;8.67;100.00;100911.78;5025450;28;20483;-57
2022/12/24 07:37:29;;;;;;;38.25;9.32;;;;;;;8.62;100.00;100914.03;5023272;28;20087;-57
2022/12/24 07:39:55;;;;;;;37.03;7.53;;;;;;;8.61;100.00;100917.66;5021847;28;20119;-59
2022/12/24 07:42:20;;;;;;;36.15;7.40;;;;;;;8.58;100.00;100912.63;5024556;28;20037;-59
2022/12/24 07:44:45;;;;;;;40.33;8.90;;;;;;;8.57;100.00;100921.53;5022775;28;20087;-58
2022/12/24 07:47:11;;;;;;;35.00;7.93;;;;;;;8.56;100.00;100922.53;5023275;28;20029;-57
2022/12/24 07:49:36;;;;;;;36.28;7.40;;;;;;;8.52;100.00;100918.50;5022168;28;20030;-60
2022/12/24 07:52:03;;;;;;;39.80;9.30;;;;;;;8.48;100.00;100929.34;5024804;28;20021;-56
2022/12/24 07:54:28;;;;;;;38.25;7.03;;;;;;;8.56;100.00;100933.94;5024496;28;20046;-57
2022/12/24 07:56:53;;;;;;;37.22;7.28;;;;;;;8.53;100.00;100934.22;5023775;28;20172;-57
2022/12/24 07:59:19;;;;;;;40.38;8.00;;;;;;;8.54;100.00;100943.81;5023785;28;20029;-56
2022/12/24 08:01:45;;;;;;;40.92;8.27;;;;;;;8.47;100.00;100958.56;5021436;28;20441;-57
2022/12/24 08:04:10;;;;;;;38.83;8.00;;;;;;;8.55;100.00;100955.22;5022891;28;20030;-56
2022/12/24 08:06:35;;;;;;;34.88;7.15;;;;;;;8.52;100.00;100966.09;5020850;28;20040;-60
2022/12/24 08:09:01;;;;;;;40.38;6.90;;;;;;;8.57;100.00;100969.97;5022248;28;20036;-57
2022/12/24 08:11:26;;;;;;;42.88;7.45;;;;;;;8.55;100.00;100965.81;5023249;28;20040;-58
2022/12/24 08:13:51;;;;;;;38.45;7.10;;;;;;;8.60;100.00;100971.50;5021935;28;20038;-61
2022/12/24 08:16:17;;;;;;;37.85;6.97;;;;;;;8.57;100.00;100980.56;5031113;28;20088;-60
2022/12/24 08:18:42;;;;;;;43.63;7.55;;;;;;;8.55;100.00;100981.66;5025093;28;20071;-56
2022/12/24 08:21:08;;;;;;;31.92;7.40;;;;;;;8.64;100.00;100982.59;5023286;28;20052;-58
2022/12/24 08:23:34;;;;;;;36.35;7.25;;;;;;;8.58;100.00;100976.91;5030537;28;20026;-55
2022/12/24 08:26:00;;;;;;;36.00;7.65;;;;;;;8.53;100.00;100984.44;5021353;28;20041;-57
2022/12/24 08:28:26;;;;;;;38.33;7.30;;;;;;;8.58;100.00;100997.22;5025559;28;20034;-57
2022/12/24 08:30:51;;;;;;;38.15;7.10;;;;;;;8.71;100.00;100992.47;5026322;28;20091;-58
2022/12/24 08:33:18;;;;;;;33.67;6.70;;;;;;;8.71;100.00;101003.03;5014912;28;20029;-57
2022/12/24 08:35:48;;;;;;;34.78;7.07;;;;;;;8.64;100.00;101004.59;5022302;28;20037;-59
2022/12/24 08:38:13;;;;;;;36.58;7.15;;;;;;;8.64;100.00;101001.97;5026011;28;20025;-56
2022/12/24 08:40:38;;;;;;;40.03;7.18;;;;;;;8.66;100.00;101000.00;5026356;28;20539;-57
2022/12/24 08:43:04;;;;;;;36.35;6.80;;;;;;;8.70;100.00;100996.09;5029418;28;20511;-57
2022/12/24 08:45:29;;;;;;;29.63;6.90;;;;;;;8.73;100.00;101006.38;5021341;28;20520;-57
2022/12/24 08:47:54;;;;;;;37.17;7.28;;;;;;;8.74;100.00;101010.66;5025830;28;20485;-56
2022/12/24 08:50:20;;;;;;;43.42;8.32;;;;;;;8.69;100.00;101009.44;5024197;28;20029;-56
2022/12/24 08:52:45;;;;;;;41.22;8.75;;;;;;;8.77;100.00;101016.66;5028001;28;20519;-57
2022/12/24 08:55:10;;;;;;;31.45;6.72;;;;;;;8.71;100.00;101018.06;5030916;28;20038;-56
2022/12/24 08:57:36;;;;;;;37.53;7.75;;;;;;;8.66;100.00;101023.78;5023340;28;20025;-57
2022/12/24 09:00:04;;;;;;;43.10;8.32;;;;;;;8.79;100.00;101025.28;5027269;28;20625;-57
2022/12/24 09:02:29;;;;;;;33.10;7.50;;;;;;;8.77;100.00;101024.59;5021106;28;20493;-57
2022/12/24 09:04:54;;;;;;;34.67;7.80;;;;;;;8.73;100.00;101027.50;5028055;28;20041;-58
2022/12/24 09:07:20;;;;;;;39.70;8.30;;;;;;;8.80;100.00;101024.28;5027290;28;20103;-57
2022/12/24 09:09:45;;;;;;;45.65;8.40;;;;;;;8.72;100.00;101041.72;5021260;28;20360;-57
2022/12/24 09:12:11;;;;;;;37.10;7.43;;;;;;;8.72;100.00;101041.72;5025343;28;20040;-58
2022/12/24 09:14:36;;;;;;;34.58;7.53;;;;;;;8.77;100.00;101048.41;5019151;28;20034;-58
2022/12/24 09:17:01;;;;;;;35.10;7.63;;;;;;;8.74;100.00;101045.03;5019646;28;20030;-57
2022/12/24 09:19:27;;;;;;;37.75;8.15;;;;;;;8.73;100.00;101058.41;5028311;28;20686;-58
2022/12/24 09:21:52;;;;;;;36.47;7.93;;;;;;;8.72;100.00;101052.28;5019586;28;20029;-58
2022/12/24 09:24:17;;;;;;;44.63;8.27;;;;;;;8.76;100.00;101068.69;5021566;28;20080;-58
2022/12/24 09:26:44;;;;;;;36.40;7.88;;;;;;;8.76;100.00;101068.69;5021218;28;20029;-57
2022/12/24 09:29:10;;;;;;;36.83;7.35;;;;;;;8.86;100.00;101084.53;5023888;28;20029;-57
2022/12/24 09:31:35;;;;;;;34.85;7.28;;;;;;;8.84;100.00;101082.03;5021919;28;20037;-57
2022/12/24 09:34:01;;;;;;;40.95;8.40;;;;;;;8.89;100.00;101076.31;5022814;28;20083;-60
2022/12/24 09:36:26;;;;;;;40.85;7.93;;;;;;;8.99;100.00;101085.03;5023457;28;20061;-57
2022/12/24 09:38:51;;;;;;;32.92;7.13;;;;;;;8.97;100.00;101087.00;5021730;28;20099;-58
2022/12/24 09:41:32;;;;;;;36.85;7.93;;;;;;;9.08;100.00;101085.16;5022467;28;20116;-58
2022/12/24 09:44:42;;;;;;;35.47;7.65;;;;;;;9.05;100.00;101082.78;5019938;28;20068;-57
2022/12/24 09:47:15;;;;;;;34.88;7.63;;;;;;;9.15;100.00;101092.38;5007077;28;20049;-58
2022/12/24 09:49:46;;;;;;;49.47;7.78;;;;;;;9.09;100.00;101094.75;5022635;28;20036;-57
2022/12/24 09:52:21;;;;;;;41.92;7.80;;;;;;;9.08;100.00;101103.69;5021801;28;20470;-60
2022/12/24 09:55:00;;;;;;;39.50;7.82;;;;;;;9.09;100.00;101106.16;5018872;28;20040;-57
2022/12/24 09:57:34;;;;;;;30.95;7.25;;;;;;;9.06;100.00;101113.56;5020277;28;20120;-57
2022/12/24 10:00:01;;;;;;;41.75;8.82;;;;;;;9.07;100.00;101107.31;5022976;28;20031;-61
2022/12/24 10:02:26;;;;;;;38.70;8.70;;;;;;;9.05;100.00;101122.47;5019994;28;20043;-62
2022/12/24 10:04:51;;;;;;;41.05;8.43;;;;;;;9.03;100.00;101127.91;5018899;28;20030;-62
2022/12/24 10:08:07;;;;;;;41.90;8.20;;;;;;;9.04;100.00;101115.53;5025433;28;20095;-59
2022/12/24 10:10:47;;;;;;;37.42;8.18;;;;;;;9.07;100.00;101120.53;4994952;28;20116;-58
2022/12/24 10:13:24;;;;;;;40.15;9.07;;;;;;;9.00;100.00;101118.47;4994237;28;20081;-56
2022/12/24 10:16:03;;;;;;;34.25;8.10;;;;;;;9.06;100.00;101130.28;5016088;28;20055;-57
2022/12/24 10:18:55;;;;;;;39.38;8.43;;;;;;;9.05;100.00;101127.78;5023348;28;20040;-57
2022/12/24 10:21:41;;;;;;;35.67;8.43;;;;;;;9.09;100.00;101116.75;5023143;28;20044;-57
2022/12/24 10:24:23;;;;;;;43.35;8.25;;;;;;;9.01;100.00;101114.84;5019575;28;20392;-60
2022/12/24 10:27:01;;;;;;;39.15;8.68;;;;;;;9.11;100.00;101114.81;5025501;28;20029;-60
2022/12/24 10:29:31;;;;;;;39.88;8.45;;;;;;;9.05;100.00;101111.91;5014515;28;20033;-56
2022/12/24 10:32:25;;;;;;;39.50;8.68;;;;;;;9.15;100.00;101112.69;5022390;28;20038;-57
2022/12/24 10:34:58;;;;;;;40.90;9.27;;;;;;;9.11;100.00;101108.66;5022817;28;20060;-60
2022/12/24 10:37:25;;;;;;;;;;;;;;;9.25;100.00;101116.16;5024381;28;20107;-58
2022/12/24 10:39:51;;;;;;;44.10;9.07;;;;;;;9.17;100.00;101128.44;5025858;28;20015;-57
2022/12/24 10:42:19;;;;;;;37.95;8.85;;;;;;;9.17;100.00;101123.97;5023342;28;20033;-57
2022/12/24 10:44:49;;;;;;;39.15;9.13;;;;;;;9.21;100.00;101124.50;5017190;28;20041;-56
2022/12/24 10:47:16;;;;;;;41.33;8.00;;;;;;;9.20;100.00;101123.69;5019450;28;20037;-58
2022/12/24 10:49:48;;;;;;;38.72;8.85;;;;;;;9.18;100.00;101120.34;5018974;28;20041;-59
2022/12/24 10:52:18;;;;;;;39.20;9.47;;;;;;;9.20;100.00;101118.41;5019083;28;20087;-57
2022/12/24 10:55:05;;;;;;;41.90;9.38;;;;;;;9.23;100.00;101123.38;5022752;28;20025;-56
2022/12/24 10:57:31;;;;;;;43.40;10.50;;;;;;;9.22;100.00;101128.84;5020500;28;20038;-56
2022/12/24 10:59:56;;;;;;;39.70;8.70;;;;;;;9.26;100.00;101128.41;5023342;28;20040;-57
2022/12/24 11:02:29;;;;;;;38.03;9.07;;;;;;;9.24;100.00;101122.41;5021214;28;20026;-56
2022/12/24 11:04:55;;;;;;;38.70;8.82;;;;;;;9.27;100.00;101124.75;5025749;28;20052;-57
2022/12/24 11:07:22;;;;;;;34.13;8.07;;;;;;;9.28;100.00;101129.06;5024896;28;20480;-57
2022/12/24 11:10:05;;;;;;;34.60;7.68;;;;;;;9.29;100.00;101130.72;5024206;28;20357;-57
2022/12/24 11:12:36;;;;;;;38.42;8.18;;;;;;;9.28;100.00;101131.72;5022716;28;20466;-60
2022/12/24 11:15:18;;;;;;;40.63;8.95;;;;;;;9.34;100.00;101138.25;5024628;28;20044;-58
2022/12/24 11:18:05;;;;;;;33.85;8.52;;;;;;;9.34;100.00;101135.63;5025198;28;20041;-57
2022/12/24 11:20:33;;;;;;;36.63;8.23;;;;;;;9.39;100.00;101135.16;5022825;28;20030;-58
2022/12/24 11:23:00;;;;;;;37.78;9.10;;;;;;;9.41;100.00;101141.13;5023261;28;20381;-57
2022/12/24 11:25:28;;;;;;;34.80;8.65;;;;;;;9.41;100.00;101135.84;5023736;28;20042;-57
2022/12/24 11:27:54;;;;;;;37.80;8.63;;;;;;;9.45;100.00;101141.69;5021855;28;20049;-58
2022/12/24 11:30:27;;;;;;;38.65;8.57;;;;;;;9.53;100.00;101150.56;5020640;28;20139;-57